sensor_id;sensor_type;location;lat;lon;timestamp;P1;durP1;ratioP1;P2;durP2;ratioP2
50225;SDS011;36113;50.742;6.432;2022-09-01T00:00:43;4.13;;;3.83;;
50225;SDS011;36113;50.742;6.432;2022-09-01T00:03:12;4.53;;;4.13;;
50225;SDS011;36113;50.742;6.432;2022-09-01T00:05:38;4.57;;;4.27;;
50225;SDS011;36113;50.742;6.432;2022-09-01T00:08:05;4.85;;;4.45;;
50225;SDS011;36113;50.742;6.432;2022-09-01T00:10:30;6.47;;;5.13;;
50225;SDS011;36113;50.742;6.432;2022-09-01T00:12:56;4.03;;;3.73;;
50225;SDS011;36113;50.742;6.432;2022-09-01T00:15:21;5.50;;;4.23;;
50225;SDS011;36113;50.742;6.432;2022-09-01T00:17:47;4.87;;;4.37;;
50225;SDS011;36113;50.742;6.432;2022-09-01T00:20:12;4.50;;;4.20;;
50225;SDS011;36113;50.742;6.432;2022-09-01T00:22:38;4.23;;;4.03;;
50225;SDS011;36113;50.742;6.432;2022-09-01T00:25:03;4.70;;;4.30;;
50225;SDS011;36113;50.742;6.432;2022-09-01T00:27:30;4.63;;;4.32;;
50225;SDS011;36113;50.742;6.432;2022-09-01T00:29:56;5.03;;;4.63;;
50225;SDS011;36113;50.742;6.432;2022-09-01T00:32:22;4.20;;;4.00;;
50225;SDS011;36113;50.742;6.432;2022-09-01T00:34:47;4.80;;;4.50;;
50225;SDS011;36113;50.742;6.432;2022-09-01T00:37:12;4.30;;;4.00;;
50225;SDS011;36113;50.742;6.432;2022-09-01T00:39:38;4.77;;;4.47;;
50225;SDS011;36113;50.742;6.432;2022-09-01T00:42:03;4.30;;;3.97;;
50225;SDS011;36113;50.742;6.432;2022-09-01T00:44:29;4.18;;;3.80;;
50225;SDS011;36113;50.742;6.432;2022-09-01T00:46:55;5.10;;;4.47;;
50225;SDS011;36113;50.742;6.432;2022-09-01T00:49:23;4.68;;;4.32;;
50225;SDS011;36113;50.742;6.432;2022-09-01T00:52:01;4.10;;;3.80;;
50225;SDS011;36113;50.742;6.432;2022-09-01T00:54:32;5.20;;;3.90;;
50225;SDS011;36113;50.742;6.432;2022-09-01T00:57:00;5.13;;;4.63;;
50225;SDS011;36113;50.742;6.432;2022-09-01T00:59:27;4.70;;;4.10;;
50225;SDS011;36113;50.742;6.432;2022-09-01T01:01:54;4.37;;;4.07;;
50225;SDS011;36113;50.742;6.432;2022-09-01T01:04:21;4.15;;;3.85;;
50225;SDS011;36113;50.742;6.432;2022-09-01T01:06:48;4.33;;;3.93;;
50225;SDS011;36113;50.742;6.432;2022-09-01T01:09:22;4.00;;;3.58;;
50225;SDS011;36113;50.742;6.432;2022-09-01T01:11:50;4.20;;;3.85;;
50225;SDS011;36113;50.742;6.432;2022-09-01T01:14:17;5.63;;;4.55;;
50225;SDS011;36113;50.742;6.432;2022-09-01T01:16:44;3.92;;;3.72;;
50225;SDS011;36113;50.742;6.432;2022-09-01T01:22:46;4.90;;;4.00;;
50225;SDS011;36113;50.742;6.432;2022-09-01T01:25:31;11.98;;;4.38;;
50225;SDS011;36113;50.742;6.432;2022-09-01T01:28:06;4.57;;;4.28;;
50225;SDS011;36113;50.742;6.432;2022-09-01T01:30:36;4.93;;;4.53;;
50225;SDS011;36113;50.742;6.432;2022-09-01T01:33:03;4.45;;;4.15;;
50225;SDS011;36113;50.742;6.432;2022-09-01T01:37:56;4.43;;;4.13;;
50225;SDS011;36113;50.742;6.432;2022-09-01T01:40:21;4.40;;;4.10;;
50225;SDS011;36113;50.742;6.432;2022-09-01T01:42:48;3.90;;;3.70;;
50225;SDS011;36113;50.742;6.432;2022-09-01T01:45:17;5.15;;;4.85;;
50225;SDS011;36113;50.742;6.432;2022-09-01T01:47:46;4.85;;;4.45;;
50225;SDS011;36113;50.742;6.432;2022-09-01T01:50:21;4.32;;;4.03;;
50225;SDS011;36113;50.742;6.432;2022-09-01T01:52:52;4.55;;;4.25;;
50225;SDS011;36113;50.742;6.432;2022-09-01T01:55:18;5.40;;;4.82;;
50225;SDS011;36113;50.742;6.432;2022-09-01T01:57:45;5.10;;;4.70;;
50225;SDS011;36113;50.742;6.432;2022-09-01T02:00:16;5.10;;;4.68;;
50225;SDS011;36113;50.742;6.432;2022-09-01T02:02:45;4.53;;;4.30;;
50225;SDS011;36113;50.742;6.432;2022-09-01T02:05:20;4.70;;;4.50;;
50225;SDS011;36113;50.742;6.432;2022-09-01T02:07:49;4.80;;;4.43;;
50225;SDS011;36113;50.742;6.432;2022-09-01T02:10:24;5.00;;;4.70;;
50225;SDS011;36113;50.742;6.432;2022-09-01T02:12:51;4.85;;;4.45;;
50225;SDS011;36113;50.742;6.432;2022-09-01T02:15:18;5.07;;;4.23;;
50225;SDS011;36113;50.742;6.432;2022-09-01T02:17:44;4.47;;;4.18;;
50225;SDS011;36113;50.742;6.432;2022-09-01T02:20:10;4.70;;;4.30;;
50225;SDS011;36113;50.742;6.432;2022-09-01T02:22:35;4.97;;;4.47;;
50225;SDS011;36113;50.742;6.432;2022-09-01T02:25:04;4.55;;;4.15;;
50225;SDS011;36113;50.742;6.432;2022-09-01T02:27:31;4.28;;;4.07;;
50225;SDS011;36113;50.742;6.432;2022-09-01T02:30:03;4.28;;;3.92;;
50225;SDS011;36113;50.742;6.432;2022-09-01T02:32:34;4.50;;;4.10;;
50225;SDS011;36113;50.742;6.432;2022-09-01T02:34:59;4.70;;;4.40;;
50225;SDS011;36113;50.742;6.432;2022-09-01T02:37:25;3.97;;;3.78;;
50225;SDS011;36113;50.742;6.432;2022-09-01T02:39:51;4.50;;;3.83;;
50225;SDS011;36113;50.742;6.432;2022-09-01T02:42:26;3.92;;;3.72;;
50225;SDS011;36113;50.742;6.432;2022-09-01T02:44:54;4.68;;;4.38;;
50225;SDS011;36113;50.742;6.432;2022-09-01T02:47:21;4.82;;;4.45;;
50225;SDS011;36113;50.742;6.432;2022-09-01T02:49:50;5.87;;;4.13;;
50225;SDS011;36113;50.742;6.432;2022-09-01T02:52:16;4.18;;;3.97;;
50225;SDS011;36113;50.742;6.432;2022-09-01T02:54:45;4.72;;;4.32;;
50225;SDS011;36113;50.742;6.432;2022-09-01T02:57:13;4.72;;;4.32;;
50225;SDS011;36113;50.742;6.432;2022-09-01T02:59:40;5.28;;;4.40;;
50225;SDS011;36113;50.742;6.432;2022-09-01T03:02:07;5.00;;;4.13;;
50225;SDS011;36113;50.742;6.432;2022-09-01T03:04:33;4.38;;;4.07;;
50225;SDS011;36113;50.742;6.432;2022-09-01T03:07:00;4.50;;;4.25;;
50225;SDS011;36113;50.742;6.432;2022-09-01T03:09:27;4.43;;;4.13;;
50225;SDS011;36113;50.742;6.432;2022-09-01T03:11:53;4.45;;;4.15;;
50225;SDS011;36113;50.742;6.432;2022-09-01T03:14:19;5.27;;;4.60;;
50225;SDS011;36113;50.742;6.432;2022-09-01T03:16:46;4.43;;;4.10;;
50225;SDS011;36113;50.742;6.432;2022-09-01T03:19:11;5.03;;;4.55;;
50225;SDS011;36113;50.742;6.432;2022-09-01T03:21:38;4.90;;;4.50;;
50225;SDS011;36113;50.742;6.432;2022-09-01T03:24:07;4.60;;;4.30;;
50225;SDS011;36113;50.742;6.432;2022-09-01T03:26:33;4.65;;;4.32;;
50225;SDS011;36113;50.742;6.432;2022-09-01T03:29:00;4.80;;;4.50;;
50225;SDS011;36113;50.742;6.432;2022-09-01T03:31:26;4.68;;;4.38;;
50225;SDS011;36113;50.742;6.432;2022-09-01T03:33:55;7.70;;;4.63;;
50225;SDS011;36113;50.742;6.432;2022-09-01T03:36:21;5.97;;;4.45;;
50225;SDS011;36113;50.742;6.432;2022-09-01T03:38:48;4.68;;;4.18;;
50225;SDS011;36113;50.742;6.432;2022-09-01T03:41:16;4.35;;;4.10;;
50225;SDS011;36113;50.742;6.432;2022-09-01T03:43:44;7.80;;;4.78;;
50225;SDS011;36113;50.742;6.432;2022-09-01T03:46:10;5.30;;;4.90;;
50225;SDS011;36113;50.742;6.432;2022-09-01T03:48:36;5.22;;;4.82;;
50225;SDS011;36113;50.742;6.432;2022-09-01T03:51:03;6.07;;;5.57;;
50225;SDS011;36113;50.742;6.432;2022-09-01T03:53:32;5.97;;;4.35;;
50225;SDS011;36113;50.742;6.432;2022-09-01T03:56:01;5.68;;;5.32;;
50225;SDS011;36113;50.742;6.432;2022-09-01T03:58:28;5.22;;;4.72;;
50225;SDS011;36113;50.742;6.432;2022-09-01T04:00:54;4.90;;;4.47;;
50225;SDS011;36113;50.742;6.432;2022-09-01T04:03:23;5.10;;;4.55;;
50225;SDS011;36113;50.742;6.432;2022-09-01T04:05:50;4.70;;;4.40;;
50225;SDS011;36113;50.742;6.432;2022-09-01T04:08:17;5.53;;;4.63;;
50225;SDS011;36113;50.742;6.432;2022-09-01T04:13:22;4.90;;;4.40;;
50225;SDS011;36113;50.742;6.432;2022-09-01T04:15:50;7.43;;;5.35;;
50225;SDS011;36113;50.742;6.432;2022-09-01T04:18:16;5.30;;;5.00;;
50225;SDS011;36113;50.742;6.432;2022-09-01T04:20:49;5.15;;;4.75;;
50225;SDS011;36113;50.742;6.432;2022-09-01T04:23:17;5.38;;;4.97;;
50225;SDS011;36113;50.742;6.432;2022-09-01T04:25:51;5.32;;;4.93;;
50225;SDS011;36113;50.742;6.432;2022-09-01T04:28:18;4.97;;;4.68;;
50225;SDS011;36113;50.742;6.432;2022-09-01T04:30:51;5.25;;;4.70;;
50225;SDS011;36113;50.742;6.432;2022-09-01T04:33:20;7.05;;;5.05;;
50225;SDS011;36113;50.742;6.432;2022-09-01T04:35:50;6.47;;;4.70;;
50225;SDS011;36113;50.742;6.432;2022-09-01T04:38:18;5.10;;;4.72;;
50225;SDS011;36113;50.742;6.432;2022-09-01T04:40:46;5.35;;;4.95;;
50225;SDS011;36113;50.742;6.432;2022-09-01T04:43:13;5.50;;;5.00;;
50225;SDS011;36113;50.742;6.432;2022-09-01T04:45:39;6.90;;;4.88;;
50225;SDS011;36113;50.742;6.432;2022-09-01T04:48:05;6.63;;;4.68;;
50225;SDS011;36113;50.742;6.432;2022-09-01T04:50:31;7.60;;;7.00;;
50225;SDS011;36113;50.742;6.432;2022-09-01T04:52:59;6.32;;;5.88;;
50225;SDS011;36113;50.742;6.432;2022-09-01T04:55:26;5.82;;;5.32;;
50225;SDS011;36113;50.742;6.432;2022-09-01T04:57:54;5.75;;;5.25;;
50225;SDS011;36113;50.742;6.432;2022-09-01T05:00:22;5.30;;;4.90;;
50225;SDS011;36113;50.742;6.432;2022-09-01T05:02:54;4.95;;;4.65;;
50225;SDS011;36113;50.742;6.432;2022-09-01T05:05:27;5.65;;;4.40;;
50225;SDS011;36113;50.742;6.432;2022-09-01T05:07:53;5.47;;;5.00;;
50225;SDS011;36113;50.742;6.432;2022-09-01T05:10:19;4.75;;;4.45;;
50225;SDS011;36113;50.742;6.432;2022-09-01T05:15:12;5.78;;;5.28;;
50225;SDS011;36113;50.742;6.432;2022-09-01T05:17:39;5.30;;;4.97;;
50225;SDS011;36113;50.742;6.432;2022-09-01T05:20:05;5.25;;;4.75;;
50225;SDS011;36113;50.742;6.432;2022-09-01T05:22:32;5.53;;;4.93;;
50225;SDS011;36113;50.742;6.432;2022-09-01T05:24:58;4.57;;;4.27;;
50225;SDS011;36113;50.742;6.432;2022-09-01T05:27:36;5.18;;;4.70;;
50225;SDS011;36113;50.742;6.432;2022-09-01T05:30:04;4.78;;;4.45;;
50225;SDS011;36113;50.742;6.432;2022-09-01T05:32:32;6.53;;;4.60;;
50225;SDS011;36113;50.742;6.432;2022-09-01T05:35:02;6.30;;;5.03;;
50225;SDS011;36113;50.742;6.432;2022-09-01T05:37:32;5.13;;;4.72;;
50225;SDS011;36113;50.742;6.432;2022-09-01T05:40:02;4.63;;;4.32;;
50225;SDS011;36113;50.742;6.432;2022-09-01T05:42:30;4.78;;;4.43;;
50225;SDS011;36113;50.742;6.432;2022-09-01T05:44:56;8.53;;;4.57;;
50225;SDS011;36113;50.742;6.432;2022-09-01T05:47:22;5.03;;;4.57;;
50225;SDS011;36113;50.742;6.432;2022-09-01T05:49:50;5.40;;;4.90;;
50225;SDS011;36113;50.742;6.432;2022-09-01T05:52:17;4.70;;;4.40;;
50225;SDS011;36113;50.742;6.432;2022-09-01T05:54:44;5.43;;;4.70;;
50225;SDS011;36113;50.742;6.432;2022-09-01T05:57:11;5.32;;;4.93;;
50225;SDS011;36113;50.742;6.432;2022-09-01T05:59:37;5.93;;;4.63;;
50225;SDS011;36113;50.742;6.432;2022-09-01T06:02:05;5.15;;;4.75;;
50225;SDS011;36113;50.742;6.432;2022-09-01T06:04:33;5.28;;;4.88;;
50225;SDS011;36113;50.742;6.432;2022-09-01T06:06:59;5.03;;;4.57;;
50225;SDS011;36113;50.742;6.432;2022-09-01T06:09:25;4.70;;;4.38;;
50225;SDS011;36113;50.742;6.432;2022-09-01T06:11:51;4.77;;;4.47;;
50225;SDS011;36113;50.742;6.432;2022-09-01T06:14:19;5.32;;;4.30;;
50225;SDS011;36113;50.742;6.432;2022-09-01T06:16:44;4.65;;;4.43;;
50225;SDS011;36113;50.742;6.432;2022-09-01T06:19:11;4.80;;;4.50;;
50225;SDS011;36113;50.742;6.432;2022-09-01T06:21:39;5.07;;;3.95;;
50225;SDS011;36113;50.742;6.432;2022-09-01T06:24:05;4.57;;;4.22;;
50225;SDS011;36113;50.742;6.432;2022-09-01T06:26:32;4.03;;;3.80;;
50225;SDS011;36113;50.742;6.432;2022-09-01T06:29:01;4.03;;;3.83;;
50225;SDS011;36113;50.742;6.432;2022-09-01T06:31:31;3.97;;;3.67;;
50225;SDS011;36113;50.742;6.432;2022-09-01T06:34:00;3.70;;;3.40;;
50225;SDS011;36113;50.742;6.432;2022-09-01T06:36:27;4.00;;;3.70;;
50225;SDS011;36113;50.742;6.432;2022-09-01T06:38:56;4.10;;;3.80;;
50225;SDS011;36113;50.742;6.432;2022-09-01T06:41:24;4.10;;;3.80;;
50225;SDS011;36113;50.742;6.432;2022-09-01T06:43:50;4.05;;;3.78;;
50225;SDS011;36113;50.742;6.432;2022-09-01T06:46:20;4.50;;;4.20;;
50225;SDS011;36113;50.742;6.432;2022-09-01T06:48:47;4.35;;;4.15;;
50225;SDS011;36113;50.742;6.432;2022-09-01T06:51:14;4.27;;;4.00;;
50225;SDS011;36113;50.742;6.432;2022-09-01T06:53:41;4.53;;;4.22;;
50225;SDS011;36113;50.742;6.432;2022-09-01T06:56:08;6.05;;;4.15;;
50225;SDS011;36113;50.742;6.432;2022-09-01T06:58:38;3.17;;;3.08;;
50225;SDS011;36113;50.742;6.432;2022-09-01T07:01:08;3.25;;;2.95;;
50225;SDS011;36113;50.742;6.432;2022-09-01T07:03:41;4.55;;;3.28;;
50225;SDS011;36113;50.742;6.432;2022-09-01T07:06:07;3.38;;;3.17;;
50225;SDS011;36113;50.742;6.432;2022-09-01T07:11:03;3.38;;;3.20;;
50225;SDS011;36113;50.742;6.432;2022-09-01T07:13:31;3.22;;;3.03;;
50225;SDS011;36113;50.742;6.432;2022-09-01T07:15:58;3.47;;;3.28;;
50225;SDS011;36113;50.742;6.432;2022-09-01T07:18:24;3.73;;;3.33;;
50225;SDS011;36113;50.742;6.432;2022-09-01T07:20:51;4.60;;;3.70;;
50225;SDS011;36113;50.742;6.432;2022-09-01T07:23:18;3.35;;;2.97;;
50225;SDS011;36113;50.742;6.432;2022-09-01T07:25:46;3.30;;;3.00;;
50225;SDS011;36113;50.742;6.432;2022-09-01T07:28:14;3.60;;;3.30;;
50225;SDS011;36113;50.742;6.432;2022-09-01T07:30:45;4.85;;;3.22;;
50225;SDS011;36113;50.742;6.432;2022-09-01T07:33:13;2.95;;;2.75;;
50225;SDS011;36113;50.742;6.432;2022-09-01T07:35:40;2.75;;;2.60;;
50225;SDS011;36113;50.742;6.432;2022-09-01T07:38:07;2.85;;;2.33;;
50225;SDS011;36113;50.742;6.432;2022-09-01T07:40:37;5.70;;;2.33;;
50225;SDS011;36113;50.742;6.432;2022-09-01T07:43:04;2.67;;;2.33;;
50225;SDS011;36113;50.742;6.432;2022-09-01T07:45:42;2.60;;;2.40;;
50225;SDS011;36113;50.742;6.432;2022-09-01T07:48:11;3.25;;;2.85;;
50225;SDS011;36113;50.742;6.432;2022-09-01T07:50:40;3.45;;;2.50;;
50225;SDS011;36113;50.742;6.432;2022-09-01T07:53:15;3.35;;;2.58;;
50225;SDS011;36113;50.742;6.432;2022-09-01T07:55:42;4.32;;;2.38;;
50225;SDS011;36113;50.742;6.432;2022-09-01T07:58:11;2.85;;;2.65;;
50225;SDS011;36113;50.742;6.432;2022-09-01T08:03:09;2.28;;;2.17;;
50225;SDS011;36113;50.742;6.432;2022-09-01T08:05:34;2.43;;;2.20;;
50225;SDS011;36113;50.742;6.432;2022-09-01T08:07:59;2.90;;;2.70;;
50225;SDS011;36113;50.742;6.432;2022-09-01T08:10:25;5.93;;;2.63;;
50225;SDS011;36113;50.742;6.432;2022-09-01T08:12:50;2.77;;;2.60;;
50225;SDS011;36113;50.742;6.432;2022-09-01T08:15:16;7.13;;;2.33;;
50225;SDS011;36113;50.742;6.432;2022-09-01T08:17:42;2.50;;;2.35;;
50225;SDS011;36113;50.742;6.432;2022-09-01T08:20:09;4.40;;;2.40;;
50225;SDS011;36113;50.742;6.432;2022-09-01T08:22:35;2.85;;;2.65;;
50225;SDS011;36113;50.742;6.432;2022-09-01T08:27:28;3.72;;;2.15;;
50225;SDS011;36113;50.742;6.432;2022-09-01T08:29:55;3.95;;;2.63;;
50225;SDS011;36113;50.742;6.432;2022-09-01T08:32:20;2.53;;;2.33;;
50225;SDS011;36113;50.742;6.432;2022-09-01T08:34:46;2.57;;;2.20;;
50225;SDS011;36113;50.742;6.432;2022-09-01T08:37:11;3.30;;;2.50;;
50225;SDS011;36113;50.742;6.432;2022-09-01T08:39:37;3.93;;;2.47;;
50225;SDS011;36113;50.742;6.432;2022-09-01T08:45:14;3.05;;;2.75;;
50225;SDS011;36113;50.742;6.432;2022-09-01T08:47:43;3.15;;;2.13;;
50225;SDS011;36113;50.742;6.432;2022-09-01T08:50:10;3.00;;;2.20;;
50225;SDS011;36113;50.742;6.432;2022-09-01T08:52:38;2.92;;;2.65;;
50225;SDS011;36113;50.742;6.432;2022-09-01T08:57:43;4.70;;;2.13;;
50225;SDS011;36113;50.742;6.432;2022-09-01T09:00:11;5.55;;;2.70;;
50225;SDS011;36113;50.742;6.432;2022-09-01T09:16:26;3.03;;;2.30;;
50225;SDS011;36113;50.742;6.432;2022-09-01T09:18:57;2.45;;;2.35;;
50225;SDS011;36113;50.742;6.432;2022-09-01T09:21:34;4.90;;;2.88;;
50225;SDS011;36113;50.742;6.432;2022-09-01T09:24:23;2.78;;;2.58;;
50225;SDS011;36113;50.742;6.432;2022-09-01T09:29:51;2.60;;;2.40;;
50225;SDS011;36113;50.742;6.432;2022-09-01T09:32:21;2.30;;;2.05;;
50225;SDS011;36113;50.742;6.432;2022-09-01T09:34:48;2.20;;;2.10;;
50225;SDS011;36113;50.742;6.432;2022-09-01T09:39:44;2.53;;;2.10;;
50225;SDS011;36113;50.742;6.432;2022-09-01T09:42:10;3.23;;;2.13;;
50225;SDS011;36113;50.742;6.432;2022-09-01T09:44:42;8.35;;;2.75;;
50225;SDS011;36113;50.742;6.432;2022-09-01T09:47:10;3.08;;;2.17;;
50225;SDS011;36113;50.742;6.432;2022-09-01T09:50:39;2.83;;;2.17;;
50225;SDS011;36113;50.742;6.432;2022-09-01T09:52:51;2.75;;;1.90;;
50225;SDS011;36113;50.742;6.432;2022-09-01T09:55:24;2.05;;;1.70;;
50225;SDS011;36113;50.742;6.432;2022-09-01T09:57:53;4.07;;;2.28;;
50225;SDS011;36113;50.742;6.432;2022-09-01T10:00:27;4.70;;;1.98;;
50225;SDS011;36113;50.742;6.432;2022-09-01T10:03:12;3.08;;;1.98;;
50225;SDS011;36113;50.742;6.432;2022-09-01T10:11:01;6.68;;;1.77;;
50225;SDS011;36113;50.742;6.432;2022-09-01T10:13:28;2.00;;;1.90;;
50225;SDS011;36113;50.742;6.432;2022-09-01T10:15:57;2.17;;;1.98;;
50225;SDS011;36113;50.742;6.432;2022-09-01T10:18:28;1.80;;;1.70;;
50225;SDS011;36113;50.742;6.432;2022-09-01T10:21:00;1.80;;;1.70;;
50225;SDS011;36113;50.742;6.432;2022-09-01T10:23:29;2.30;;;1.67;;
50225;SDS011;36113;50.742;6.432;2022-09-01T10:26:18;2.00;;;1.83;;
50225;SDS011;36113;50.742;6.432;2022-09-01T10:29:00;3.05;;;2.85;;
50225;SDS011;36113;50.742;6.432;2022-09-01T10:31:32;4.32;;;1.80;;
50225;SDS011;36113;50.742;6.432;2022-09-01T10:33:59;1.70;;;1.60;;
50225;SDS011;36113;50.742;6.432;2022-09-01T10:36:27;1.50;;;1.50;;
50225;SDS011;36113;50.742;6.432;2022-09-01T10:38:54;5.35;;;1.98;;
50225;SDS011;36113;50.742;6.432;2022-09-01T10:44:19;1.63;;;1.50;;
50225;SDS011;36113;50.742;6.432;2022-09-01T10:46:46;1.52;;;1.42;;
50225;SDS011;36113;50.742;6.432;2022-09-01T10:52:06;3.08;;;1.88;;
50225;SDS011;36113;50.742;6.432;2022-09-01T10:57:04;2.60;;;1.60;;
50225;SDS011;36113;50.742;6.432;2022-09-01T10:59:34;2.30;;;1.88;;
50225;SDS011;36113;50.742;6.432;2022-09-01T11:15:49;1.90;;;1.80;;
50225;SDS011;36113;50.742;6.432;2022-09-01T11:17:58;2.58;;;1.85;;
50225;SDS011;36113;50.742;6.432;2022-09-01T11:20:25;3.03;;;1.60;;
50225;SDS011;36113;50.742;6.432;2022-09-01T11:28:07;2.05;;;1.95;;
50225;SDS011;36113;50.742;6.432;2022-09-01T11:30:55;1.80;;;1.70;;
50225;SDS011;36113;50.742;6.432;2022-09-01T11:41:22;3.20;;;1.73;;
50225;SDS011;36113;50.742;6.432;2022-09-01T11:43:58;4.13;;;2.00;;
50225;SDS011;36113;50.742;6.432;2022-09-01T11:46:26;2.53;;;1.90;;
50225;SDS011;36113;50.742;6.432;2022-09-01T11:48:54;5.32;;;2.00;;
50225;SDS011;36113;50.742;6.432;2022-09-01T11:51:21;7.05;;;2.17;;
50225;SDS011;36113;50.742;6.432;2022-09-01T11:53:46;3.90;;;2.10;;
50225;SDS011;36113;50.742;6.432;2022-09-01T11:56:18;1.85;;;1.75;;
50225;SDS011;36113;50.742;6.432;2022-09-01T11:58:48;3.08;;;2.05;;
50225;SDS011;36113;50.742;6.432;2022-09-01T12:01:21;4.70;;;2.23;;
50225;SDS011;36113;50.742;6.432;2022-09-01T12:03:55;4.35;;;1.92;;
50225;SDS011;36113;50.742;6.432;2022-09-01T12:06:23;4.22;;;2.40;;
50225;SDS011;36113;50.742;6.432;2022-09-01T12:08:52;2.17;;;1.98;;
50225;SDS011;36113;50.742;6.432;2022-09-01T12:11:23;3.50;;;2.13;;
50225;SDS011;36113;50.742;6.432;2022-09-01T12:13:55;2.33;;;2.00;;
50225;SDS011;36113;50.742;6.432;2022-09-01T12:16:30;2.72;;;2.08;;
50225;SDS011;36113;50.742;6.432;2022-09-01T12:18:58;2.30;;;2.10;;
50225;SDS011;36113;50.742;6.432;2022-09-01T12:21:32;2.47;;;1.90;;
50225;SDS011;36113;50.742;6.432;2022-09-01T12:24:19;2.03;;;1.80;;
50225;SDS011;36113;50.742;6.432;2022-09-01T12:26:47;2.50;;;2.10;;
50225;SDS011;36113;50.742;6.432;2022-09-01T12:29:18;2.47;;;2.13;;
50225;SDS011;36113;50.742;6.432;2022-09-01T12:31:45;4.40;;;2.22;;
50225;SDS011;36113;50.742;6.432;2022-09-01T12:34:27;2.53;;;2.30;;
50225;SDS011;36113;50.742;6.432;2022-09-01T12:47:11;2.53;;;2.20;;
50225;SDS011;36113;50.742;6.432;2022-09-01T12:52:25;2.47;;;2.38;;
50225;SDS011;36113;50.742;6.432;2022-09-01T12:54:52;4.20;;;2.50;;
50225;SDS011;36113;50.742;6.432;2022-09-01T12:57:32;4.18;;;2.42;;
50225;SDS011;36113;50.742;6.432;2022-09-01T13:02:37;2.58;;;2.17;;
50225;SDS011;36113;50.742;6.432;2022-09-01T13:07:43;2.42;;;2.33;;
50225;SDS011;36113;50.742;6.432;2022-09-01T13:10:09;3.17;;;2.10;;
50225;SDS011;36113;50.742;6.432;2022-09-01T13:12:37;2.70;;;2.50;;
50225;SDS011;36113;50.742;6.432;2022-09-01T13:15:06;3.15;;;2.40;;
50225;SDS011;36113;50.742;6.432;2022-09-01T13:17:32;11.13;;;2.45;;
50225;SDS011;36113;50.742;6.432;2022-09-01T13:19:57;2.70;;;2.50;;
50225;SDS011;36113;50.742;6.432;2022-09-01T13:22:22;2.57;;;2.30;;
50225;SDS011;36113;50.742;6.432;2022-09-01T13:24:48;3.92;;;2.17;;
50225;SDS011;36113;50.742;6.432;2022-09-01T13:27:14;2.83;;;2.53;;
50225;SDS011;36113;50.742;6.432;2022-09-01T13:29:39;2.17;;;2.07;;
50225;SDS011;36113;50.742;6.432;2022-09-01T13:34:31;3.53;;;2.22;;
50225;SDS011;36113;50.742;6.432;2022-09-01T13:36:57;4.27;;;2.47;;
50225;SDS011;36113;50.742;6.432;2022-09-01T13:39:22;2.30;;;2.20;;
50225;SDS011;36113;50.742;6.432;2022-09-01T13:41:47;3.33;;;1.90;;
50225;SDS011;36113;50.742;6.432;2022-09-01T13:44:13;3.63;;;2.53;;
50225;SDS011;36113;50.742;6.432;2022-09-01T13:46:39;2.10;;;2.00;;
50225;SDS011;36113;50.742;6.432;2022-09-01T13:49:05;2.55;;;2.40;;
50225;SDS011;36113;50.742;6.432;2022-09-01T13:51:31;4.30;;;2.40;;
50225;SDS011;36113;50.742;6.432;2022-09-01T13:53:56;2.40;;;2.23;;
50225;SDS011;36113;50.742;6.432;2022-09-01T13:56:22;2.30;;;2.10;;
50225;SDS011;36113;50.742;6.432;2022-09-01T13:58:47;3.47;;;2.30;;
50225;SDS011;36113;50.742;6.432;2022-09-01T14:01:12;5.10;;;2.43;;
50225;SDS011;36113;50.742;6.432;2022-09-01T14:03:39;4.03;;;2.05;;
50225;SDS011;36113;50.742;6.432;2022-09-01T14:06:05;9.95;;;2.67;;
50225;SDS011;36113;50.742;6.432;2022-09-01T14:08:31;2.97;;;2.20;;
50225;SDS011;36113;50.742;6.432;2022-09-01T14:10:58;2.35;;;2.15;;
50225;SDS011;36113;50.742;6.432;2022-09-01T14:13:24;4.57;;;2.38;;
50225;SDS011;36113;50.742;6.432;2022-09-01T14:15:50;2.38;;;2.28;;
50225;SDS011;36113;50.742;6.432;2022-09-01T14:18:17;8.23;;;2.45;;
50225;SDS011;36113;50.742;6.432;2022-09-01T14:20:46;3.03;;;2.78;;
50225;SDS011;36113;50.742;6.432;2022-09-01T14:23:14;3.05;;;2.05;;
50225;SDS011;36113;50.742;6.432;2022-09-01T14:25:46;3.10;;;2.08;;
50225;SDS011;36113;50.742;6.432;2022-09-01T14:28:13;3.17;;;2.13;;
50225;SDS011;36113;50.742;6.432;2022-09-01T14:30:39;2.30;;;1.80;;
50225;SDS011;36113;50.742;6.432;2022-09-01T14:33:07;3.63;;;2.30;;
50225;SDS011;36113;50.742;6.432;2022-09-01T14:35:35;1.90;;;1.80;;
50225;SDS011;36113;50.742;6.432;2022-09-01T14:38:03;2.47;;;2.28;;
50225;SDS011;36113;50.742;6.432;2022-09-01T14:40:31;3.13;;;2.38;;
50225;SDS011;36113;50.742;6.432;2022-09-01T14:42:57;10.27;;;2.30;;
50225;SDS011;36113;50.742;6.432;2022-09-01T14:45:24;5.97;;;2.75;;
50225;SDS011;36113;50.742;6.432;2022-09-01T14:47:53;4.65;;;2.50;;
50225;SDS011;36113;50.742;6.432;2022-09-01T14:50:21;5.32;;;2.50;;
50225;SDS011;36113;50.742;6.432;2022-09-01T14:52:47;19.25;;;3.45;;
50225;SDS011;36113;50.742;6.432;2022-09-01T14:57:39;2.30;;;2.20;;
50225;SDS011;36113;50.742;6.432;2022-09-01T15:00:05;2.73;;;2.50;;
50225;SDS011;36113;50.742;6.432;2022-09-01T15:02:40;2.30;;;2.20;;
50225;SDS011;36113;50.742;6.432;2022-09-01T15:05:06;5.22;;;2.47;;
50225;SDS011;36113;50.742;6.432;2022-09-01T15:07:32;11.45;;;2.72;;
50225;SDS011;36113;50.742;6.432;2022-09-01T15:09:58;2.23;;;2.13;;
50225;SDS011;36113;50.742;6.432;2022-09-01T15:12:23;3.13;;;2.13;;
50225;SDS011;36113;50.742;6.432;2022-09-01T15:14:50;2.63;;;2.40;;
50225;SDS011;36113;50.742;6.432;2022-09-01T15:17:15;2.53;;;2.33;;
50225;SDS011;36113;50.742;6.432;2022-09-01T15:19:41;2.40;;;2.20;;
50225;SDS011;36113;50.742;6.432;2022-09-01T15:22:07;2.10;;;2.00;;
50225;SDS011;36113;50.742;6.432;2022-09-01T15:24:35;2.00;;;1.90;;
50225;SDS011;36113;50.742;6.432;2022-09-01T15:27:00;5.20;;;2.22;;
50225;SDS011;36113;50.742;6.432;2022-09-01T15:29:25;2.17;;;2.07;;
50225;SDS011;36113;50.742;6.432;2022-09-01T15:31:51;2.27;;;2.10;;
50225;SDS011;36113;50.742;6.432;2022-09-01T15:34:17;2.70;;;2.50;;
50225;SDS011;36113;50.742;6.432;2022-09-01T15:36:43;2.20;;;2.10;;
50225;SDS011;36113;50.742;6.432;2022-09-01T15:39:09;6.95;;;2.42;;
50225;SDS011;36113;50.742;6.432;2022-09-01T15:41:35;2.53;;;2.00;;
50225;SDS011;36113;50.742;6.432;2022-09-01T15:44:01;6.97;;;2.55;;
50225;SDS011;36113;50.742;6.432;2022-09-01T15:46:32;2.55;;;2.17;;
50225;SDS011;36113;50.742;6.432;2022-09-01T15:48:59;1.98;;;1.88;;
50225;SDS011;36113;50.742;6.432;2022-09-01T15:53:54;7.03;;;2.28;;
50225;SDS011;36113;50.742;6.432;2022-09-01T15:56:22;2.63;;;2.30;;
50225;SDS011;36113;50.742;6.432;2022-09-01T15:58:48;3.20;;;2.90;;
50225;SDS011;36113;50.742;6.432;2022-09-01T16:01:14;2.47;;;2.28;;
50225;SDS011;36113;50.742;6.432;2022-09-01T16:03:41;2.83;;;2.42;;
50225;SDS011;36113;50.742;6.432;2022-09-01T16:06:06;4.70;;;2.33;;
50225;SDS011;36113;50.742;6.432;2022-09-01T16:08:33;3.92;;;2.47;;
50225;SDS011;36113;50.742;6.432;2022-09-01T16:10:58;2.20;;;2.10;;
50225;SDS011;36113;50.742;6.432;2022-09-01T16:13:24;3.35;;;2.10;;
50225;SDS011;36113;50.742;6.432;2022-09-01T16:16:39;2.55;;;2.08;;
50225;SDS011;36113;50.742;6.432;2022-09-01T16:18:48;2.40;;;2.15;;
50225;SDS011;36113;50.742;6.432;2022-09-01T16:21:28;6.93;;;2.25;;
50225;SDS011;36113;50.742;6.432;2022-09-01T16:24:07;4.40;;;2.35;;
50225;SDS011;36113;50.742;6.432;2022-09-01T16:26:36;5.40;;;2.55;;
50225;SDS011;36113;50.742;6.432;2022-09-01T16:29:07;3.97;;;2.63;;
50225;SDS011;36113;50.742;6.432;2022-09-01T16:31:36;2.42;;;2.33;;
50225;SDS011;36113;50.742;6.432;2022-09-01T16:34:12;3.37;;;2.10;;
50225;SDS011;36113;50.742;6.432;2022-09-01T16:39:42;7.75;;;2.65;;
50225;SDS011;36113;50.742;6.432;2022-09-01T16:50:59;3.13;;;2.22;;
50225;SDS011;36113;50.742;6.432;2022-09-01T16:56:52;2.58;;;2.47;;
50225;SDS011;36113;50.742;6.432;2022-09-01T17:02:01;2.65;;;2.08;;